Terminal Aerodrome Forecast
Issued by NWS Upton, NY

Home | Current Version | Previous Version | Text Only | Print | Product List | Glossary On
Versions: 1 2 3 4 5 6 7 8 9 10 11 12 13 14 15 16 17 18 19 20 21 22 23 24 25 26 27 28 29 30 31 32 33 34 35 36
331
FTUS41 KOKX 200837 AAA
TAFBDR
TAF AMD
KBDR 200837Z 2009/2106 29008KT P6SM SKC
     FM201200 31014G22KT P6SM FEW050
     FM201600 31018G26KT P6SM SCT050
     FM210000 33011KT P6SM SKC
     FM210500 32006KT P6SM SKC=

USA.gov is the U.S. government's official web portal to all federal, state and local government web resources and services.